sensor_id;sensor_type;location;lat;lon;timestamp;pressure;altitude;pressure_sealevel;temperature;humidity
22862;BME280;11598;50.652;6.172;2023-05-31T00:03:20;97177.47;;;10.34;99.73
22862;BME280;11598;50.652;6.172;2023-05-31T00:13:20;97180.28;;;10.31;100.00
22862;BME280;11598;50.652;6.172;2023-05-31T00:23:21;97177.09;;;10.26;100.00
22862;BME280;11598;50.652;6.172;2023-05-31T00:33:21;97173.31;;;10.17;100.00
22862;BME280;11598;50.652;6.172;2023-05-31T00:43:22;97175.44;;;10.10;100.00
22862;BME280;11598;50.652;6.172;2023-05-31T00:53:22;97180.06;;;10.05;100.00
22862;BME280;11598;50.652;6.172;2023-05-31T01:03:22;97181.66;;;10.08;100.00
22862;BME280;11598;50.652;6.172;2023-05-31T01:13:28;97183.97;;;9.98;100.00
22862;BME280;11598;50.652;6.172;2023-05-31T01:34:07;97179.06;;;9.79;100.00
22862;BME280;11598;50.652;6.172;2023-05-31T01:44:09;97175.34;;;9.69;100.00
22862;BME280;11598;50.652;6.172;2023-05-31T01:54:11;97186.06;;;9.63;100.00
22862;BME280;11598;50.652;6.172;2023-05-31T02:04:11;97180.13;;;9.61;100.00
22862;BME280;11598;50.652;6.172;2023-05-31T02:14:12;97175.31;;;9.55;100.00
22862;BME280;11598;50.652;6.172;2023-05-31T02:24:12;97171.66;;;9.43;100.00
22862;BME280;11598;50.652;6.172;2023-05-31T02:34:12;97163.69;;;9.31;100.00
22862;BME280;11598;50.652;6.172;2023-05-31T02:44:14;97168.94;;;9.16;100.00
22862;BME280;11598;50.652;6.172;2023-05-31T02:54:14;97161.44;;;8.95;100.00
22862;BME280;11598;50.652;6.172;2023-05-31T03:04:14;97159.72;;;8.80;100.00
22862;BME280;11598;50.652;6.172;2023-05-31T03:14:15;97157.78;;;8.67;100.00
22862;BME280;11598;50.652;6.172;2023-05-31T03:24:15;97156.56;;;8.43;100.00
22862;BME280;11598;50.652;6.172;2023-05-31T03:34:17;97166.81;;;8.29;100.00
22862;BME280;11598;50.652;6.172;2023-05-31T03:44:17;97163.09;;;8.50;100.00
22862;BME280;11598;50.652;6.172;2023-05-31T03:54:17;97159.47;;;8.68;100.00
22862;BME280;11598;50.652;6.172;2023-05-31T04:04:18;97161.31;;;8.82;100.00
22862;BME280;11598;50.652;6.172;2023-05-31T04:14:18;97161.22;;;9.14;100.00
22862;BME280;11598;50.652;6.172;2023-05-31T04:24:18;97160.59;;;9.55;100.00
22862;BME280;11598;50.652;6.172;2023-05-31T04:34:19;97165.25;;;9.93;100.00
22862;BME280;11598;50.652;6.172;2023-05-31T04:44:20;97159.31;;;10.34;100.00
22862;BME280;11598;50.652;6.172;2023-05-31T04:54:20;97161.75;;;10.64;100.00
22862;BME280;11598;50.652;6.172;2023-05-31T05:04:21;97169.06;;;10.99;100.00
22862;BME280;11598;50.652;6.172;2023-05-31T05:14:21;97168.94;;;11.40;100.00
22862;BME280;11598;50.652;6.172;2023-05-31T05:24:22;97154.94;;;12.07;100.00
22862;BME280;11598;50.652;6.172;2023-05-31T05:34:22;97171.19;;;13.32;95.99
22862;BME280;11598;50.652;6.172;2023-05-31T05:44:23;97173.94;;;14.00;90.75
22862;BME280;11598;50.652;6.172;2023-05-31T05:54:23;97180.69;;;14.70;84.76
22862;BME280;11598;50.652;6.172;2023-05-31T06:04:23;97176.78;;;15.08;80.70
22862;BME280;11598;50.652;6.172;2023-05-31T06:14:24;97177.38;;;15.86;77.63
22862;BME280;11598;50.652;6.172;2023-05-31T06:24:24;97181.88;;;16.36;73.32
22862;BME280;11598;50.652;6.172;2023-05-31T06:34:24;97192.28;;;16.47;69.98
22862;BME280;11598;50.652;6.172;2023-05-31T06:44:25;97190.81;;;16.74;65.53
22862;BME280;11598;50.652;6.172;2023-05-31T06:54:28;97192.78;;;16.81;63.68
22862;BME280;11598;50.652;6.172;2023-05-31T07:04:29;97196.19;;;17.22;61.81
22862;BME280;11598;50.652;6.172;2023-05-31T07:14:29;97200.88;;;17.48;59.79
22862;BME280;11598;50.652;6.172;2023-05-31T07:24:30;97200.84;;;17.67;60.30
22862;BME280;11598;50.652;6.172;2023-05-31T07:34:30;97199.56;;;18.48;58.10
22862;BME280;11598;50.652;6.172;2023-05-31T07:44:30;97206.13;;;19.35;53.94
22862;BME280;11598;50.652;6.172;2023-05-31T07:54:31;97203.06;;;19.65;52.02
22862;BME280;11598;50.652;6.172;2023-05-31T08:04:31;97199.84;;;20.16;49.87
22862;BME280;11598;50.652;6.172;2023-05-31T08:14:31;97203.78;;;21.56;47.64
22862;BME280;11598;50.652;6.172;2023-05-31T08:24:32;97180.47;;;22.95;44.93
22862;BME280;11598;50.652;6.172;2023-05-31T08:34:32;97189.75;;;23.69;41.70
22862;BME280;11598;50.652;6.172;2023-05-31T08:44:33;97193.06;;;21.73;42.92
22862;BME280;11598;50.652;6.172;2023-05-31T08:54:34;97171.50;;;20.18;41.84
22862;BME280;11598;50.652;6.172;2023-05-31T09:04:35;97179.16;;;19.23;42.82
22862;BME280;11598;50.652;6.172;2023-05-31T09:14:36;97178.41;;;18.77;44.11
22862;BME280;11598;50.652;6.172;2023-05-31T09:24:36;97162.00;;;18.83;44.78
22862;BME280;11598;50.652;6.172;2023-05-31T09:34:38;97169.84;;;18.65;44.48
22862;BME280;11598;50.652;6.172;2023-05-31T09:44:38;97172.38;;;18.57;44.61
22862;BME280;11598;50.652;6.172;2023-05-31T09:54:39;97161.84;;;18.57;45.38
22862;BME280;11598;50.652;6.172;2023-05-31T10:04:40;97156.94;;;18.44;46.22
22862;BME280;11598;50.652;6.172;2023-05-31T10:14:43;97152.19;;;18.48;45.50
22862;BME280;11598;50.652;6.172;2023-05-31T10:24:56;97154.75;;;18.57;46.55
22862;BME280;11598;50.652;6.172;2023-05-31T10:35:00;97142.47;;;18.58;47.97
22862;BME280;11598;50.652;6.172;2023-05-31T10:45:13;97146.19;;;18.55;48.45
22862;BME280;11598;50.652;6.172;2023-05-31T10:55:22;97119.03;;;18.55;46.37
22862;BME280;11598;50.652;6.172;2023-05-31T11:05:24;97115.09;;;18.69;46.99
22862;BME280;11598;50.652;6.172;2023-05-31T11:15:44;97118.47;;;18.89;46.06
22862;BME280;11598;50.652;6.172;2023-05-31T11:26:37;97126.72;;;18.94;46.08
22862;BME280;11598;50.652;6.172;2023-05-31T11:36:31;97114.53;;;18.93;46.45
22862;BME280;11598;50.652;6.172;2023-05-31T11:46:32;97118.44;;;19.25;45.97
22862;BME280;11598;50.652;6.172;2023-05-31T11:56:34;97111.44;;;19.33;45.64
22862;BME280;11598;50.652;6.172;2023-05-31T12:06:36;97092.53;;;19.38;45.06
22862;BME280;11598;50.652;6.172;2023-05-31T12:16:36;97085.19;;;19.50;44.96
22862;BME280;11598;50.652;6.172;2023-05-31T12:26:37;97078.81;;;19.60;45.66
22862;BME280;11598;50.652;6.172;2023-05-31T12:46:42;97073.63;;;19.95;44.08
22862;BME280;11598;50.652;6.172;2023-05-31T12:56:43;97060.78;;;20.00;43.05
22862;BME280;11598;50.652;6.172;2023-05-31T13:06:45;97057.88;;;20.19;42.08
22862;BME280;11598;50.652;6.172;2023-05-31T13:16:45;97033.34;;;20.35;42.37
22862;BME280;11598;50.652;6.172;2023-05-31T13:26:46;97027.13;;;20.44;43.19
22862;BME280;11598;50.652;6.172;2023-05-31T13:36:46;97025.13;;;20.46;42.43
22862;BME280;11598;50.652;6.172;2023-05-31T13:46:46;97023.66;;;20.44;42.18
22862;BME280;11598;50.652;6.172;2023-05-31T13:56:47;97011.66;;;20.58;40.63
22862;BME280;11598;50.652;6.172;2023-05-31T14:06:47;96997.59;;;20.49;40.94
22862;BME280;11598;50.652;6.172;2023-05-31T14:16:48;97015.59;;;20.62;40.21
22862;BME280;11598;50.652;6.172;2023-05-31T14:26:48;96986.56;;;20.62;40.03
22862;BME280;11598;50.652;6.172;2023-05-31T14:36:49;96972.56;;;20.78;42.64
22862;BME280;11598;50.652;6.172;2023-05-31T14:46:49;96977.50;;;20.97;41.29
22862;BME280;11598;50.652;6.172;2023-05-31T14:56:52;96972.38;;;20.87;42.46
22862;BME280;11598;50.652;6.172;2023-05-31T15:06:53;96970.41;;;20.89;43.57
22862;BME280;11598;50.652;6.172;2023-05-31T15:16:53;96961.97;;;20.86;44.41
22862;BME280;11598;50.652;6.172;2023-05-31T15:26:54;96958.03;;;20.82;45.64
22862;BME280;11598;50.652;6.172;2023-05-31T15:36:55;96954.03;;;20.86;45.55
22862;BME280;11598;50.652;6.172;2023-05-31T15:46:55;96950.28;;;20.80;45.16
22862;BME280;11598;50.652;6.172;2023-05-31T15:56:56;96943.53;;;20.69;44.63
22862;BME280;11598;50.652;6.172;2023-05-31T16:06:57;96935.59;;;20.78;45.25
22862;BME280;11598;50.652;6.172;2023-05-31T16:16:57;96930.66;;;20.75;45.20
22862;BME280;11598;50.652;6.172;2023-05-31T16:26:58;96937.56;;;20.59;45.13
22862;BME280;11598;50.652;6.172;2023-05-31T16:36:58;96932.75;;;20.46;45.47
22862;BME280;11598;50.652;6.172;2023-05-31T16:46:59;96918.56;;;20.47;46.21
22862;BME280;11598;50.652;6.172;2023-05-31T16:56:59;96916.59;;;20.49;46.17
22862;BME280;11598;50.652;6.172;2023-05-31T17:07:00;96908.34;;;20.53;44.88
22862;BME280;11598;50.652;6.172;2023-05-31T17:17:00;96904.88;;;20.44;45.57
22862;BME280;11598;50.652;6.172;2023-05-31T17:27:00;96911.81;;;20.45;45.00
22862;BME280;11598;50.652;6.172;2023-05-31T17:37:01;96906.34;;;20.22;44.79
22862;BME280;11598;50.652;6.172;2023-05-31T17:47:01;96908.44;;;19.94;45.19
22862;BME280;11598;50.652;6.172;2023-05-31T17:57:01;96906.78;;;19.76;45.72
22862;BME280;11598;50.652;6.172;2023-05-31T18:07:02;96912.97;;;19.67;45.67
22862;BME280;11598;50.652;6.172;2023-05-31T18:17:03;96917.84;;;19.54;46.85
22862;BME280;11598;50.652;6.172;2023-05-31T18:27:14;96919.81;;;19.43;47.31
22862;BME280;11598;50.652;6.172;2023-05-31T18:37:15;96912.16;;;19.24;48.49
22862;BME280;11598;50.652;6.172;2023-05-31T18:47:16;96919.97;;;19.08;49.73
22862;BME280;11598;50.652;6.172;2023-05-31T18:57:16;96915.19;;;18.85;50.86
22862;BME280;11598;50.652;6.172;2023-05-31T19:07:17;96918.78;;;18.58;52.44
22862;BME280;11598;50.652;6.172;2023-05-31T19:17:18;96918.56;;;18.33;53.63
22862;BME280;11598;50.652;6.172;2023-05-31T19:27:18;96914.06;;;18.08;54.73
22862;BME280;11598;50.652;6.172;2023-05-31T19:37:19;96929.19;;;17.78;55.79
22862;BME280;11598;50.652;6.172;2023-05-31T19:47:20;96926.63;;;17.59;56.69
22862;BME280;11598;50.652;6.172;2023-05-31T19:57:21;96936.16;;;17.32;58.08
22862;BME280;11598;50.652;6.172;2023-05-31T20:07:21;96946.53;;;16.96;59.97
22862;BME280;11598;50.652;6.172;2023-05-31T20:17:22;96954.97;;;16.70;60.42
22862;BME280;11598;50.652;6.172;2023-05-31T20:27:22;96967.00;;;16.44;61.52
22862;BME280;11598;50.652;6.172;2023-05-31T20:37:22;96975.00;;;16.33;62.67
22862;BME280;11598;50.652;6.172;2023-05-31T20:47:23;96974.81;;;16.15;63.51
22862;BME280;11598;50.652;6.172;2023-05-31T20:57:23;96970.81;;;16.01;63.92
22862;BME280;11598;50.652;6.172;2023-05-31T21:07:24;96975.22;;;15.91;64.33
22862;BME280;11598;50.652;6.172;2023-05-31T21:17:24;96975.72;;;15.84;64.44
22862;BME280;11598;50.652;6.172;2023-05-31T21:27:25;96971.03;;;15.78;64.61
22862;BME280;11598;50.652;6.172;2023-05-31T21:37:25;96980.78;;;15.67;64.99
22862;BME280;11598;50.652;6.172;2023-05-31T21:47:26;96978.91;;;15.48;65.75
22862;BME280;11598;50.652;6.172;2023-05-31T21:57:26;96975.75;;;15.23;66.79
22862;BME280;11598;50.652;6.172;2023-05-31T22:07:26;96973.16;;;15.02;67.82
22862;BME280;11598;50.652;6.172;2023-05-31T22:17:27;96965.22;;;14.83;68.29
22862;BME280;11598;50.652;6.172;2023-05-31T22:27:27;96964.69;;;14.68;68.63
22862;BME280;11598;50.652;6.172;2023-05-31T22:37:28;96970.69;;;14.58;69.30
22862;BME280;11598;50.652;6.172;2023-05-31T22:47:28;96978.28;;;14.50;69.78
22862;BME280;11598;50.652;6.172;2023-05-31T22:57:28;96973.97;;;14.40;69.88
22862;BME280;11598;50.652;6.172;2023-05-31T23:07:29;96974.06;;;14.38;70.09
22862;BME280;11598;50.652;6.172;2023-05-31T23:17:32;96968.06;;;14.26;70.40
22862;BME280;11598;50.652;6.172;2023-05-31T23:27:37;96969.88;;;14.14;70.81
22862;BME280;11598;50.652;6.172;2023-05-31T23:37:38;96963.97;;;14.01;71.49
22862;BME280;11598;50.652;6.172;2023-05-31T23:47:39;96962.97;;;13.81;72.17
22862;BME280;11598;50.652;6.172;2023-05-31T23:57:39;96973.78;;;13.77;72.81
